createdAt,value
2019-05-12T00:00:50.549Z,90.10
2019-05-12T00:03:19.910Z,90.10
2019-05-12T00:05:49.147Z,90.20
2019-05-12T00:08:18.973Z,90.30
2019-05-12T00:10:48.257Z,90.40
2019-05-12T00:13:19.016Z,90.50
2019-05-12T00:15:48.386Z,90.80
2019-05-12T00:18:18.178Z,90.90
2019-05-12T00:20:47.695Z,91.00
2019-05-12T00:23:24.981Z,91.10
2019-05-12T00:25:48.094Z,91.20
2019-05-12T00:28:17.925Z,91.30
2019-05-12T00:30:49.617Z,91.40
2019-05-12T00:33:18.998Z,91.40
2019-05-12T00:35:48.507Z,91.40
2019-05-12T00:38:17.857Z,91.60
2019-05-12T00:40:47.934Z,91.80
2019-05-12T00:43:18.790Z,92.00
2019-05-12T00:45:48.387Z,92.10
2019-05-12T00:48:17.953Z,92.20
2019-05-12T00:50:48.513Z,92.30
2019-05-12T00:53:18.847Z,92.50
2019-05-12T00:55:48.206Z,92.80
2019-05-12T00:58:19.405Z,92.90
2019-05-12T01:00:48.398Z,93.20
2019-05-12T01:03:18.837Z,93.50
2019-05-12T01:05:48.646Z,93.70
2019-05-12T01:08:18.696Z,93.90
2019-05-12T01:10:48.182Z,94.20
2019-05-12T01:13:18.731Z,94.50
2019-05-12T01:15:48.267Z,94.70
2019-05-12T01:18:18.180Z,94.70
2019-05-12T01:20:48.065Z,95.10
2019-05-12T01:23:19.227Z,95.10
2019-05-12T01:25:50.826Z,95.20
2019-05-12T01:28:19.295Z,95.40
2019-05-12T01:30:48.564Z,95.60
2019-05-12T01:33:18.393Z,95.80
2019-05-12T01:35:48.335Z,95.80
2019-05-12T01:38:18.228Z,96.10
2019-05-12T01:40:48.041Z,96.30
2019-05-12T01:43:20.742Z,96.40
2019-05-12T01:45:48.463Z,96.60
2019-05-12T01:48:18.335Z,96.70
2019-05-12T01:50:47.723Z,96.70
2019-05-12T01:53:18.132Z,96.70
2019-05-12T01:55:48.597Z,96.90
2019-05-12T01:58:19.344Z,96.90
2019-05-12T02:00:48.580Z,97.00
2019-05-12T02:03:17.994Z,97.20
2019-05-12T02:05:50.125Z,97.20
2019-05-12T02:08:24.527Z,97.30
2019-05-12T02:11:12.713Z,97.40
2019-05-12T02:13:41.839Z,97.60
2019-05-12T02:16:11.343Z,97.80
2019-05-12T02:18:40.536Z,97.80
2019-05-12T02:21:09.674Z,97.90
2019-05-12T02:23:38.794Z,98.20
2019-05-12T02:26:08.344Z,98.30
2019-05-12T02:28:39.500Z,98.40
2019-05-12T02:31:09.640Z,98.70
2019-05-12T02:33:44.613Z,98.90
2019-05-12T02:36:15.052Z,98.90
2019-05-12T02:38:45.301Z,99.20
2019-05-12T02:41:15.520Z,99.10
2019-05-12T02:43:45.640Z,99.10
2019-05-12T02:46:15.831Z,99.40
2019-05-12T02:48:45.441Z,99.60
2019-05-12T02:51:15.876Z,99.70
2019-05-12T02:53:47.055Z,99.70
2019-05-12T02:56:17.737Z,99.90
2019-05-12T02:58:48.779Z,99.90
2019-05-12T03:01:19.633Z,99.90
2019-05-12T03:03:55.216Z,99.90
2019-05-12T03:06:25.760Z,99.90
2019-05-12T03:08:57.149Z,99.90
2019-05-12T03:11:28.536Z,99.90
2019-05-12T03:13:57.648Z,99.90
2019-05-12T03:16:26.702Z,99.90
2019-05-12T03:18:55.863Z,99.90
2019-05-12T03:21:24.982Z,99.90
2019-05-12T03:23:55.033Z,99.90
2019-05-12T03:26:24.923Z,99.90
2019-05-12T03:28:55.527Z,99.90
2019-05-12T03:31:31.121Z,99.90
2019-05-12T03:33:59.908Z,99.90
2019-05-12T03:36:32.761Z,99.90
2019-05-12T03:38:57.268Z,99.90
2019-05-12T03:41:26.735Z,99.90
2019-05-12T03:43:55.807Z,99.90
2019-05-12T03:46:25.090Z,99.90
2019-05-12T03:48:55.357Z,99.90
2019-05-12T03:51:25.243Z,99.90
2019-05-12T03:53:55.688Z,99.90
2019-05-12T03:56:26.110Z,99.90
2019-05-12T03:58:55.527Z,99.90
2019-05-12T04:01:25.673Z,99.90
2019-05-12T04:03:55.071Z,99.90
2019-05-12T04:06:24.766Z,99.90
2019-05-12T04:08:56.045Z,99.90
2019-05-12T04:11:25.144Z,99.90
2019-05-12T04:13:55.191Z,99.90
2019-05-12T04:16:25.150Z,99.90
2019-05-12T04:18:55.128Z,99.90
2019-05-12T04:21:24.648Z,99.90
2019-05-12T04:23:54.869Z,99.90
2019-05-12T04:26:25.364Z,99.90
2019-05-12T04:28:55.028Z,99.90
2019-05-12T04:31:25.003Z,99.90
2019-05-12T04:33:54.882Z,99.90
2019-05-12T04:36:24.929Z,99.90
2019-05-12T04:38:55.573Z,99.90
2019-05-12T04:41:25.983Z,99.90
2019-05-12T04:43:55.423Z,99.90
2019-05-12T04:46:25.449Z,99.90
2019-05-12T04:48:54.767Z,99.90
2019-05-12T04:51:25.888Z,99.90
2019-05-12T04:53:55.107Z,99.90
2019-05-12T04:56:25.091Z,99.90
2019-05-12T04:58:54.786Z,99.90
2019-05-12T05:01:25.361Z,99.90
2019-05-12T05:03:54.790Z,99.90
2019-05-12T05:06:25.354Z,99.90
2019-05-12T05:08:54.776Z,99.90
2019-05-12T05:11:25.055Z,99.90
2019-05-12T05:13:54.993Z,99.90
2019-05-12T05:16:24.972Z,99.90
2019-05-12T05:18:54.423Z,99.90
2019-05-12T05:21:24.131Z,99.90
2019-05-12T05:23:53.752Z,99.90
2019-05-12T05:26:27.855Z,99.90
2019-05-12T05:28:54.336Z,99.90
2019-05-12T05:31:24.316Z,99.90
2019-05-12T05:33:53.768Z,99.90
2019-05-12T05:36:26.533Z,99.90
2019-05-12T05:38:59.678Z,99.90
2019-05-12T05:41:26.486Z,99.90
2019-05-12T05:43:58.419Z,99.90
2019-05-12T05:46:26.470Z,99.90
2019-05-12T05:48:55.891Z,99.90
2019-05-12T05:51:24.998Z,99.90
2019-05-12T05:53:54.144Z,99.90
2019-05-12T05:56:38.332Z,99.90
2019-05-12T05:58:54.739Z,99.90
2019-05-12T06:01:24.699Z,99.90
2019-05-12T06:03:58.269Z,99.90
2019-05-12T06:06:24.778Z,99.90
2019-05-12T06:08:58.123Z,99.90
2019-05-12T06:11:28.587Z,99.90
2019-05-12T06:14:03.293Z,99.90
2019-05-12T06:16:29.486Z,99.90
2019-05-12T06:18:58.646Z,99.90
2019-05-12T06:21:29.172Z,99.90
2019-05-12T06:24:03.523Z,99.90
2019-05-12T06:26:35.709Z,99.90
2019-05-12T06:29:04.515Z,99.90
2019-05-12T06:31:33.773Z,99.90
2019-05-12T06:34:06.145Z,99.90
2019-05-12T06:36:34.227Z,99.90
2019-05-12T06:39:10.583Z,99.90
2019-05-12T06:41:37.130Z,99.90
2019-05-12T06:44:08.917Z,99.90
2019-05-12T06:46:37.302Z,99.50
2019-05-12T06:49:12.795Z,98.80
2019-05-12T06:51:37.747Z,98.40
2019-05-12T06:54:11.863Z,97.90
2019-05-12T06:56:37.697Z,97.80
2019-05-12T06:59:10.333Z,97.80
2019-05-12T07:01:37.727Z,97.20
2019-05-12T07:04:10.109Z,96.50
2019-05-12T07:06:37.850Z,96.30
2019-05-12T07:09:09.733Z,96.70
2019-05-12T07:11:44.912Z,96.60
2019-05-12T07:14:19.068Z,96.20
2019-05-12T07:16:40.903Z,96.30
2019-05-12T07:19:17.392Z,96.40
2019-05-12T07:21:41.140Z,96.70
2019-05-12T07:24:11.290Z,97.00
2019-05-12T07:26:40.551Z,97.10
2019-05-12T07:29:09.703Z,97.10
2019-05-12T07:31:38.834Z,96.70
2019-05-12T07:34:08.116Z,96.90
2019-05-12T07:36:38.172Z,97.10
2019-05-12T07:39:08.915Z,96.80
2019-05-12T07:41:42.371Z,96.40
2019-05-12T07:44:10.426Z,96.00
2019-05-12T07:46:44.869Z,95.50
2019-05-12T07:49:10.412Z,95.30
2019-05-12T07:51:40.786Z,95.60
2019-05-12T07:54:10.015Z,95.70
2019-05-12T07:56:41.068Z,96.10
2019-05-12T07:59:10.074Z,96.20
2019-05-12T08:01:48.222Z,96.50
2019-05-12T08:04:10.050Z,96.80
2019-05-12T08:06:41.853Z,96.20
2019-05-12T08:09:10.137Z,96.00
2019-05-12T08:11:39.254Z,96.00
2019-05-12T08:14:13.701Z,95.60
2019-05-12T08:16:39.365Z,95.80
2019-05-12T08:19:08.683Z,95.70
2019-05-12T08:21:43.776Z,95.00
2019-05-12T08:24:14.319Z,93.90
2019-05-12T08:26:43.675Z,93.80
2019-05-12T08:29:17.145Z,93.50
2019-05-12T08:31:44.175Z,93.70
2019-05-12T08:34:13.735Z,92.70
2019-05-12T08:36:45.008Z,92.20
2019-05-12T08:39:21.247Z,91.10
2019-05-12T08:41:44.790Z,91.20
2019-05-12T08:44:17.031Z,91.30
2019-05-12T08:46:52.009Z,90.80
2019-05-12T08:49:15.733Z,90.80
2019-05-12T08:51:49.488Z,90.20
2019-05-12T08:54:15.694Z,90.00
2019-05-12T08:56:45.168Z,90.10
2019-05-12T08:59:17.486Z,90.20
2019-05-12T09:01:45.235Z,86.90
2019-05-12T09:04:18.135Z,85.40
2019-05-12T09:06:45.454Z,83.10
2019-05-12T09:09:14.546Z,83.20
2019-05-12T09:11:44.175Z,82.70
2019-05-12T09:14:14.594Z,80.90
2019-05-12T09:16:44.094Z,81.10
2019-05-12T09:19:16.682Z,80.20
2019-05-12T09:21:44.784Z,79.40
2019-05-12T09:24:21.856Z,80.70
2019-05-12T09:26:45.230Z,82.50
2019-05-12T09:29:14.343Z,83.20
2019-05-12T09:31:44.063Z,82.80
2019-05-12T09:34:16.300Z,84.00
2019-05-12T09:36:44.351Z,84.70
2019-05-12T09:39:14.207Z,83.10
2019-05-12T09:41:49.505Z,83.80
2019-05-12T09:44:14.442Z,82.10
2019-05-12T09:46:44.098Z,82.80
2019-05-12T09:49:14.280Z,82.80
2019-05-12T09:51:46.015Z,77.10
2019-05-12T09:54:14.794Z,75.90
2019-05-12T09:56:44.242Z,75.50
2019-05-12T09:59:20.772Z,75.80
2019-05-12T10:01:46.055Z,76.10
2019-05-12T10:04:19.186Z,77.10
2019-05-12T10:06:46.172Z,76.20
2019-05-12T10:09:19.647Z,75.10
2019-05-12T10:11:46.165Z,74.80
2019-05-12T10:14:15.280Z,70.60
2019-05-12T10:16:49.224Z,70.30
2019-05-12T10:19:15.587Z,71.60
2019-05-12T10:21:49.160Z,70.50
2019-05-12T10:24:15.601Z,70.70
2019-05-12T10:26:48.742Z,70.40
2019-05-12T10:29:20.314Z,70.80
2019-05-12T10:31:46.494Z,69.40
2019-05-12T10:34:23.580Z,68.50
2019-05-12T10:36:53.776Z,68.00
2019-05-12T10:39:24.408Z,65.80
2019-05-12T10:41:54.787Z,67.30
2019-05-12T10:44:24.103Z,66.80
2019-05-12T10:46:56.315Z,65.60
2019-05-12T10:49:25.464Z,66.60
2019-05-12T10:51:54.606Z,67.00
2019-05-12T10:54:24.360Z,66.30
2019-05-12T10:56:54.641Z,65.80
2019-05-12T10:59:32.275Z,67.70
2019-05-12T11:01:55.218Z,68.70
2019-05-12T11:04:35.735Z,68.90
2019-05-12T11:06:55.559Z,69.30
2019-05-12T11:09:27.385Z,69.50
2019-05-12T11:11:55.477Z,70.60
2019-05-12T11:14:26.310Z,70.80
2019-05-12T11:16:56.806Z,69.40
2019-05-12T11:19:26.202Z,68.80
2019-05-12T11:21:55.310Z,69.40
2019-05-12T11:24:24.822Z,69.80
2019-05-12T11:26:54.264Z,69.70
2019-05-12T11:29:23.654Z,65.90
2019-05-12T11:31:53.883Z,67.70
2019-05-12T11:34:23.199Z,68.40
2019-05-12T11:36:54.346Z,69.20
2019-05-12T11:39:23.613Z,68.80
2019-05-12T11:41:55.295Z,68.70
2019-05-12T11:44:23.941Z,69.70
2019-05-12T11:46:54.611Z,69.70
2019-05-12T11:49:26.328Z,69.40
2019-05-12T11:51:54.830Z,69.80
2019-05-12T11:54:24.361Z,69.40
2019-05-12T11:56:54.766Z,70.50
2019-05-12T11:59:23.939Z,71.10
2019-05-12T12:01:55.687Z,71.10
2019-05-12T12:04:26.836Z,71.40
2019-05-12T12:06:56.070Z,70.00
2019-05-12T12:09:25.236Z,64.90
2019-05-12T12:12:02.467Z,64.60
2019-05-12T12:14:25.331Z,64.60
2019-05-12T12:16:54.594Z,64.40
2019-05-12T12:19:26.196Z,65.10
2019-05-12T12:21:54.724Z,65.90
2019-05-12T12:24:30.118Z,65.70
2019-05-12T12:26:55.175Z,65.30
2019-05-12T12:29:24.304Z,64.80
2019-05-12T12:31:54.274Z,62.40
2019-05-12T12:34:29.513Z,61.50
2019-05-12T12:36:54.627Z,61.10
2019-05-12T12:39:24.191Z,63.30
2019-05-12T12:41:59.515Z,64.40
2019-05-12T12:44:24.321Z,64.20
2019-05-12T12:46:59.948Z,62.90
2019-05-12T12:49:24.590Z,61.10
2019-05-12T12:51:53.769Z,60.10
2019-05-12T12:54:22.838Z,61.50
2019-05-12T12:56:53.882Z,63.00
2019-05-12T12:59:24.027Z,63.50
2019-05-12T13:01:53.483Z,61.40
2019-05-12T13:04:24.731Z,61.60
2019-05-12T13:06:54.395Z,61.70
2019-05-12T13:09:24.625Z,59.20
2019-05-12T13:11:53.964Z,59.70
2019-05-12T13:14:28.140Z,62.10
2019-05-12T13:16:54.710Z,63.10
2019-05-12T13:19:25.052Z,60.60
2019-05-12T13:21:54.259Z,59.40
2019-05-12T13:24:23.473Z,60.00
2019-05-12T13:26:54.017Z,60.90
2019-05-12T13:29:28.298Z,60.90
2019-05-12T13:31:54.040Z,61.20
2019-05-12T13:34:23.775Z,62.30
2019-05-12T13:36:54.547Z,61.50
2019-05-12T13:39:24.263Z,60.70
2019-05-12T13:41:58.499Z,62.10
2019-05-12T13:44:24.381Z,59.60
2019-05-12T13:46:56.973Z,59.00
2019-05-12T13:49:24.607Z,58.70
2019-05-12T13:51:53.878Z,58.40
2019-05-12T13:54:26.145Z,59.00
2019-05-12T13:56:54.155Z,59.00
2019-05-12T13:59:25.425Z,59.30
2019-05-12T14:01:54.347Z,58.50
2019-05-12T14:04:27.795Z,58.20
2019-05-12T14:06:54.234Z,56.60
2019-05-12T14:09:23.870Z,56.60
2019-05-12T14:11:53.875Z,57.10
2019-05-12T14:14:23.875Z,57.20
2019-05-12T14:16:59.132Z,57.20
2019-05-12T14:19:24.171Z,56.70
2019-05-12T14:21:54.270Z,56.40
2019-05-12T14:24:23.479Z,56.70
2019-05-12T14:26:53.387Z,57.90
2019-05-12T14:29:26.539Z,57.70
2019-05-12T14:31:59.611Z,57.00
2019-05-12T14:34:24.712Z,57.20
2019-05-12T14:37:04.791Z,57.10
2019-05-12T14:39:24.701Z,55.50
2019-05-12T14:41:54.705Z,55.00
2019-05-12T14:44:23.955Z,55.20
2019-05-12T14:46:53.774Z,56.10
2019-05-12T14:49:28.434Z,56.20
2019-05-12T14:51:55.184Z,55.20
2019-05-12T14:54:24.297Z,54.80
2019-05-12T14:56:57.698Z,54.90
2019-05-12T14:59:24.426Z,54.90
2019-05-12T15:01:59.221Z,55.30
2019-05-12T15:04:29.551Z,54.70
2019-05-12T15:06:59.837Z,54.40
2019-05-12T15:09:26.137Z,55.30
2019-05-12T15:11:55.238Z,54.80
2019-05-12T15:14:32.336Z,54.80
2019-05-12T15:16:55.434Z,54.50
2019-05-12T15:19:27.815Z,54.60
2019-05-12T15:21:55.352Z,54.70
2019-05-12T15:24:24.650Z,54.10
2019-05-12T15:26:57.508Z,53.60
2019-05-12T15:29:24.631Z,54.30
2019-05-12T15:31:56.652Z,53.80
2019-05-12T15:34:24.601Z,53.40
2019-05-12T15:36:56.102Z,53.70
2019-05-12T15:39:24.505Z,54.50
2019-05-12T15:41:56.446Z,54.40
2019-05-12T15:44:31.368Z,54.10
2019-05-12T15:46:55.586Z,53.20
2019-05-12T15:49:26.219Z,52.90
2019-05-12T15:51:58.524Z,53.10
2019-05-12T15:54:26.290Z,53.20
2019-05-12T15:56:55.778Z,52.70
2019-05-12T15:59:25.000Z,52.20
2019-05-12T16:02:08.417Z,52.60
2019-05-12T16:04:25.205Z,53.00
2019-05-12T16:06:57.776Z,53.10
2019-05-12T16:09:25.370Z,52.60
2019-05-12T16:11:54.574Z,51.80
2019-05-12T16:14:23.674Z,53.00
2019-05-12T16:16:53.571Z,53.60
2019-05-12T16:19:23.474Z,54.70
2019-05-12T16:21:54.164Z,53.30
2019-05-12T16:24:23.683Z,53.10
2019-05-12T16:26:54.146Z,51.90
2019-05-12T16:29:23.598Z,53.10
2019-05-12T16:31:53.703Z,53.00
2019-05-12T16:34:22.951Z,53.70
2019-05-12T16:36:54.780Z,53.60
2019-05-12T16:39:23.885Z,51.30
2019-05-12T16:41:54.405Z,51.20
2019-05-12T16:44:26.041Z,51.20
2019-05-12T16:46:54.672Z,50.40
2019-05-12T16:49:25.134Z,49.30
2019-05-12T16:51:54.950Z,49.40
2019-05-12T16:54:24.256Z,49.00
2019-05-12T16:56:53.763Z,49.20
2019-05-12T16:59:24.631Z,49.70
2019-05-12T17:01:54.318Z,49.90
2019-05-12T17:04:23.861Z,49.60
2019-05-12T17:06:53.142Z,50.30
2019-05-12T17:09:24.046Z,51.10
2019-05-12T17:11:55.492Z,51.10
2019-05-12T17:14:24.158Z,51.90
2019-05-12T17:16:54.339Z,52.60
2019-05-12T17:19:23.717Z,52.90
2019-05-12T17:21:58.001Z,53.20
2019-05-12T17:24:24.078Z,53.90
2019-05-12T17:26:53.250Z,54.40
2019-05-12T17:29:24.263Z,55.10
2019-05-12T17:31:53.559Z,56.00
2019-05-12T17:34:25.694Z,56.50
2019-05-12T17:36:56.065Z,56.80
2019-05-12T17:39:29.510Z,57.00
2019-05-12T17:41:55.743Z,57.50
2019-05-12T17:44:24.895Z,58.00
2019-05-12T17:46:54.146Z,58.60
2019-05-12T17:49:29.266Z,58.60
2019-05-12T17:51:57.070Z,59.80
2019-05-12T17:54:26.488Z,60.90
2019-05-12T17:56:56.838Z,61.60
2019-05-12T17:59:29.273Z,62.30
2019-05-12T18:01:57.506Z,63.00
2019-05-12T18:04:30.564Z,63.20
2019-05-12T18:06:57.614Z,63.40
2019-05-12T18:09:26.698Z,63.90
2019-05-12T18:11:56.388Z,63.50
2019-05-12T18:14:27.684Z,63.10
2019-05-12T18:17:02.512Z,63.40
2019-05-12T18:19:27.517Z,63.50
2019-05-12T18:22:03.445Z,63.10
2019-05-12T18:24:27.941Z,62.20
2019-05-12T18:27:04.249Z,62.40
2019-05-12T18:29:27.879Z,62.50
2019-05-12T18:31:57.090Z,62.80
2019-05-12T18:34:26.176Z,62.80
2019-05-12T18:36:59.531Z,62.90
2019-05-12T18:39:26.282Z,62.90
2019-05-12T18:41:55.706Z,63.50
2019-05-12T18:44:29.339Z,63.90
2019-05-12T18:46:55.863Z,64.40
2019-05-12T18:49:25.495Z,64.80
2019-05-12T18:51:55.637Z,64.80
2019-05-12T18:54:25.514Z,65.00
2019-05-12T18:57:02.573Z,65.20
2019-05-12T18:59:28.169Z,65.50
2019-05-12T19:01:56.874Z,65.80
2019-05-12T19:04:25.954Z,66.00
2019-05-12T19:06:55.327Z,66.10
2019-05-12T19:09:24.390Z,66.40
2019-05-12T19:11:53.691Z,66.60
2019-05-12T19:14:23.202Z,66.90
2019-05-12T19:16:53.838Z,66.90
2019-05-12T19:19:23.740Z,66.70
2019-05-12T19:22:04.950Z,66.60
2019-05-12T19:24:23.784Z,66.60
2019-05-12T19:26:54.113Z,66.60
2019-05-12T19:29:24.341Z,66.70
2019-05-12T19:31:57.752Z,66.40
2019-05-12T19:34:26.279Z,66.60
2019-05-12T19:36:55.186Z,66.50
2019-05-12T19:39:25.445Z,66.40
2019-05-12T19:41:54.625Z,66.60
2019-05-12T19:44:26.583Z,66.60
2019-05-12T19:46:54.508Z,66.60
2019-05-12T19:49:25.870Z,66.30
2019-05-12T19:51:54.534Z,66.50
2019-05-12T19:54:27.538Z,66.70
2019-05-12T19:56:54.515Z,66.70
2019-05-12T19:59:23.741Z,66.70
2019-05-12T20:01:53.567Z,66.80
2019-05-12T20:04:33.488Z,66.60
2019-05-12T20:06:54.538Z,66.70
2019-05-12T20:09:24.379Z,66.60
2019-05-12T20:11:53.824Z,66.50
2019-05-12T20:14:24.170Z,66.40
2019-05-12T20:16:54.457Z,66.50
2019-05-12T20:19:25.281Z,66.30
2019-05-12T20:21:54.819Z,66.30
2019-05-12T20:24:24.172Z,67.30
2019-05-12T20:26:53.851Z,66.60
2019-05-12T20:29:24.604Z,66.50
2019-05-12T20:31:53.991Z,66.60
2019-05-12T20:34:24.413Z,66.60
2019-05-12T20:36:53.853Z,67.40
2019-05-12T20:39:24.507Z,66.70
2019-05-12T20:41:54.697Z,66.70
2019-05-12T20:44:24.610Z,66.70
2019-05-12T20:46:56.121Z,66.70
2019-05-12T20:49:24.683Z,66.80
2019-05-12T20:52:03.336Z,66.90
2019-05-12T20:54:24.891Z,66.90
2019-05-12T20:57:02.024Z,67.00
2019-05-12T20:59:28.069Z,66.90
2019-05-12T21:01:55.646Z,66.90
2019-05-12T21:04:31.269Z,67.00
2019-05-12T21:06:55.699Z,67.00
2019-05-12T21:09:24.767Z,67.10
2019-05-12T21:11:54.659Z,67.20
2019-05-12T21:14:24.198Z,67.30
2019-05-12T21:16:54.001Z,67.20
2019-05-12T21:19:24.086Z,67.20
2019-05-12T21:22:03.689Z,67.30
2019-05-12T21:24:35.966Z,67.40
2019-05-12T21:27:03.868Z,67.50
2019-05-12T21:29:33.391Z,67.60
2019-05-12T21:32:11.677Z,67.70
2019-05-12T21:34:34.527Z,67.80
2019-05-12T21:37:07.845Z,67.90
2019-05-12T21:39:40.578Z,67.90
2019-05-12T21:42:07.739Z,68.00
2019-05-12T21:44:41.322Z,68.20
2019-05-12T21:47:10.387Z,68.40
2019-05-12T21:49:42.698Z,68.70
2019-05-12T21:52:09.530Z,68.80
2019-05-12T21:54:39.739Z,69.00
2019-05-12T21:57:09.046Z,69.20
2019-05-12T21:59:39.738Z,69.40
2019-05-12T22:02:09.050Z,69.40
2019-05-12T22:04:42.696Z,69.70
2019-05-12T22:07:08.982Z,70.00
2019-05-12T22:09:41.696Z,70.40
2019-05-12T22:12:09.037Z,70.50
2019-05-12T22:14:40.741Z,70.60
2019-05-12T22:17:09.184Z,70.60
2019-05-12T22:19:38.329Z,70.80
2019-05-12T22:22:08.064Z,70.80
2019-05-12T22:24:38.959Z,71.10
2019-05-12T22:27:08.203Z,71.20
2019-05-12T22:29:37.352Z,71.40
2019-05-12T22:32:06.492Z,71.50
2019-05-12T22:34:41.662Z,71.50
2019-05-12T22:37:06.363Z,72.00
2019-05-12T22:39:35.531Z,72.00
2019-05-12T22:42:04.671Z,72.20
2019-05-12T22:44:34.744Z,72.40
2019-05-12T22:47:12.510Z,72.90
2019-05-12T22:49:34.894Z,73.20
2019-05-12T22:52:06.972Z,73.40
2019-05-12T22:54:34.775Z,74.00
2019-05-12T22:57:04.201Z,73.70
2019-05-12T22:59:40.347Z,73.70
2019-05-12T23:02:04.534Z,73.60
2019-05-12T23:04:35.796Z,73.70
2019-05-12T23:07:04.476Z,73.80
2019-05-12T23:09:34.094Z,73.90
2019-05-12T23:12:04.220Z,74.10
2019-05-12T23:14:34.089Z,74.60
2019-05-12T23:17:05.608Z,74.60
2019-05-12T23:19:34.186Z,74.80
2019-05-12T23:22:03.722Z,75.00
2019-05-12T23:24:38.811Z,75.40
2019-05-12T23:27:04.843Z,76.00
2019-05-12T23:29:34.534Z,76.00
2019-05-12T23:32:07.249Z,75.80
2019-05-12T23:34:34.760Z,76.20
2019-05-12T23:37:04.074Z,76.10
2019-05-12T23:39:38.071Z,76.20
2019-05-12T23:42:04.511Z,76.00
2019-05-12T23:44:33.624Z,75.80
2019-05-12T23:47:04.239Z,75.50
2019-05-12T23:49:33.854Z,75.30
2019-05-12T23:52:03.899Z,75.60
2019-05-12T23:54:36.516Z,75.40
2019-05-12T23:57:05.752Z,75.50
2019-05-12T23:59:34.903Z,75.20
